sensor_id;sensor_type;location;lat;lon;timestamp;P1;durP1;ratioP1;P2;durP2;ratioP2
40046;SDS011;31510;48.122;11.576;2022-10-16T00:00:40;4.20;;;1.58;;
40046;SDS011;31510;48.122;11.576;2022-10-16T00:03:07;3.13;;;1.80;;
40046;SDS011;31510;48.122;11.576;2022-10-16T00:05:37;2.28;;;1.40;;
40046;SDS011;31510;48.122;11.576;2022-10-16T00:08:04;3.42;;;1.65;;
40046;SDS011;31510;48.122;11.576;2022-10-16T00:10:29;2.45;;;1.20;;
40046;SDS011;31510;48.122;11.576;2022-10-16T00:12:55;4.03;;;1.55;;
40046;SDS011;31510;48.122;11.576;2022-10-16T00:15:20;5.93;;;1.77;;
40046;SDS011;31510;48.122;11.576;2022-10-16T00:17:45;3.45;;;1.08;;
40046;SDS011;31510;48.122;11.576;2022-10-16T00:20:10;3.05;;;1.30;;
40046;SDS011;31510;48.122;11.576;2022-10-16T00:22:36;2.40;;;1.67;;
40046;SDS011;31510;48.122;11.576;2022-10-16T00:25:01;2.97;;;1.27;;
40046;SDS011;31510;48.122;11.576;2022-10-16T00:27:26;2.72;;;1.50;;
40046;SDS011;31510;48.122;11.576;2022-10-16T00:29:52;2.60;;;1.80;;
40046;SDS011;31510;48.122;11.576;2022-10-16T00:32:20;3.10;;;1.30;;
40046;SDS011;31510;48.122;11.576;2022-10-16T00:34:46;2.50;;;1.65;;
40046;SDS011;31510;48.122;11.576;2022-10-16T00:37:11;4.75;;;1.75;;
40046;SDS011;31510;48.122;11.576;2022-10-16T00:39:37;2.03;;;1.13;;
40046;SDS011;31510;48.122;11.576;2022-10-16T00:42:02;3.60;;;1.20;;
40046;SDS011;31510;48.122;11.576;2022-10-16T00:44:48;3.90;;;1.63;;
40046;SDS011;31510;48.122;11.576;2022-10-16T00:47:19;4.00;;;1.80;;
40046;SDS011;31510;48.122;11.576;2022-10-16T00:49:50;2.63;;;0.93;;
40046;SDS011;31510;48.122;11.576;2022-10-16T00:52:18;3.72;;;1.20;;
40046;SDS011;31510;48.122;11.576;2022-10-16T00:54:44;4.80;;;2.47;;
40046;SDS011;31510;48.122;11.576;2022-10-16T00:57:11;6.57;;;3.28;;
40046;SDS011;31510;48.122;11.576;2022-10-16T00:59:37;9.85;;;6.95;;
40046;SDS011;31510;48.122;11.576;2022-10-16T01:02:05;12.05;;;8.15;;
40046;SDS011;31510;48.122;11.576;2022-10-16T01:04:37;10.07;;;7.15;;
40046;SDS011;31510;48.122;11.576;2022-10-16T01:07:08;11.35;;;7.32;;
40046;SDS011;31510;48.122;11.576;2022-10-16T01:12:53;9.27;;;6.60;;
40046;SDS011;31510;48.122;11.576;2022-10-16T01:21:43;6.00;;;3.63;;
40046;SDS011;31510;48.122;11.576;2022-10-16T01:27:05;7.40;;;2.90;;
40046;SDS011;31510;48.122;11.576;2022-10-16T01:29:39;3.72;;;2.38;;
40046;SDS011;31510;48.122;11.576;2022-10-16T01:32:26;3.92;;;2.33;;
40046;SDS011;31510;48.122;11.576;2022-10-16T01:37:32;3.77;;;2.10;;
40046;SDS011;31510;48.122;11.576;2022-10-16T01:40:03;7.07;;;2.55;;
40046;SDS011;31510;48.122;11.576;2022-10-16T01:42:34;2.40;;;1.67;;
40046;SDS011;31510;48.122;11.576;2022-10-16T01:45:04;6.55;;;1.90;;
40046;SDS011;31510;48.122;11.576;2022-10-16T01:47:32;5.10;;;1.38;;
40046;SDS011;31510;48.122;11.576;2022-10-16T01:50:01;3.17;;;1.55;;
40046;SDS011;31510;48.122;11.576;2022-10-16T01:52:29;4.13;;;1.65;;
40046;SDS011;31510;48.122;11.576;2022-10-16T01:54:59;2.28;;;1.33;;
40046;SDS011;31510;48.122;11.576;2022-10-16T01:57:26;6.95;;;1.95;;
40046;SDS011;31510;48.122;11.576;2022-10-16T01:59:54;2.97;;;1.23;;
40046;SDS011;31510;48.122;11.576;2022-10-16T02:02:25;3.28;;;1.13;;
40046;SDS011;31510;48.122;11.576;2022-10-16T02:04:55;4.57;;;1.60;;
40046;SDS011;31510;48.122;11.576;2022-10-16T02:07:33;4.43;;;1.98;;
40046;SDS011;31510;48.122;11.576;2022-10-16T02:09:59;2.78;;;1.40;;
40046;SDS011;31510;48.122;11.576;2022-10-16T02:15:10;5.53;;;3.20;;
40046;SDS011;31510;48.122;11.576;2022-10-16T02:17:35;5.68;;;2.83;;
40046;SDS011;31510;48.122;11.576;2022-10-16T02:20:00;5.78;;;2.00;;
40046;SDS011;31510;48.122;11.576;2022-10-16T02:22:27;3.92;;;1.45;;
40046;SDS011;31510;48.122;11.576;2022-10-16T02:29:58;3.95;;;1.10;;
40046;SDS011;31510;48.122;11.576;2022-10-16T02:32:40;3.95;;;1.17;;
40046;SDS011;31510;48.122;11.576;2022-10-16T02:35:09;1.52;;;0.90;;
40046;SDS011;31510;48.122;11.576;2022-10-16T02:37:35;1.83;;;0.70;;
40046;SDS011;31510;48.122;11.576;2022-10-16T02:40:03;1.08;;;0.75;;
40046;SDS011;31510;48.122;11.576;2022-10-16T02:42:33;1.02;;;0.70;;
40046;SDS011;31510;48.122;11.576;2022-10-16T02:45:00;1.63;;;0.80;;
40046;SDS011;31510;48.122;11.576;2022-10-16T02:47:25;8.40;;;0.68;;
40046;SDS011;31510;48.122;11.576;2022-10-16T02:49:50;6.40;;;0.63;;
40046;SDS011;31510;48.122;11.576;2022-10-16T02:52:16;3.50;;;0.98;;
40046;SDS011;31510;48.122;11.576;2022-10-16T02:54:41;1.75;;;1.13;;
40046;SDS011;31510;48.122;11.576;2022-10-16T02:57:06;1.27;;;0.57;;
40046;SDS011;31510;48.122;11.576;2022-10-16T02:59:31;1.45;;;0.85;;
40046;SDS011;31510;48.122;11.576;2022-10-16T03:01:57;1.45;;;0.82;;
40046;SDS011;31510;48.122;11.576;2022-10-16T03:04:22;4.13;;;1.20;;
40046;SDS011;31510;48.122;11.576;2022-10-16T03:06:47;3.72;;;1.00;;
40046;SDS011;31510;48.122;11.576;2022-10-16T03:09:12;1.13;;;0.57;;
40046;SDS011;31510;48.122;11.576;2022-10-16T03:11:38;1.73;;;1.00;;
40046;SDS011;31510;48.122;11.576;2022-10-16T03:14:03;1.90;;;0.68;;
40046;SDS011;31510;48.122;11.576;2022-10-16T03:16:28;3.42;;;0.70;;
40046;SDS011;31510;48.122;11.576;2022-10-16T03:18:54;3.10;;;0.90;;
40046;SDS011;31510;48.122;11.576;2022-10-16T03:21:19;1.23;;;0.73;;
40046;SDS011;31510;48.122;11.576;2022-10-16T03:23:44;2.33;;;1.03;;
40046;SDS011;31510;48.122;11.576;2022-10-16T03:26:09;2.75;;;0.70;;
40046;SDS011;31510;48.122;11.576;2022-10-16T03:28:35;1.67;;;0.80;;
40046;SDS011;31510;48.122;11.576;2022-10-16T03:31:00;1.05;;;0.63;;
40046;SDS011;31510;48.122;11.576;2022-10-16T03:33:25;3.05;;;1.20;;
40046;SDS011;31510;48.122;11.576;2022-10-16T03:35:51;1.95;;;1.20;;
40046;SDS011;31510;48.122;11.576;2022-10-16T03:38:18;2.60;;;0.85;;
40046;SDS011;31510;48.122;11.576;2022-10-16T03:40:43;2.40;;;1.10;;
40046;SDS011;31510;48.122;11.576;2022-10-16T03:43:08;3.40;;;1.10;;
40046;SDS011;31510;48.122;11.576;2022-10-16T03:45:34;2.65;;;0.90;;
40046;SDS011;31510;48.122;11.576;2022-10-16T03:47:59;1.73;;;1.10;;
40046;SDS011;31510;48.122;11.576;2022-10-16T03:50:24;1.83;;;1.10;;
40046;SDS011;31510;48.122;11.576;2022-10-16T03:52:49;1.25;;;0.90;;
40046;SDS011;31510;48.122;11.576;2022-10-16T03:55:15;3.40;;;0.93;;
40046;SDS011;31510;48.122;11.576;2022-10-16T03:57:40;3.10;;;1.20;;
40046;SDS011;31510;48.122;11.576;2022-10-16T04:00:05;5.50;;;1.02;;
40046;SDS011;31510;48.122;11.576;2022-10-16T04:02:31;2.67;;;1.05;;
40046;SDS011;31510;48.122;11.576;2022-10-16T04:04:56;3.90;;;0.98;;
40046;SDS011;31510;48.122;11.576;2022-10-16T04:07:22;1.40;;;0.80;;
40046;SDS011;31510;48.122;11.576;2022-10-16T04:09:47;15.70;;;2.27;;
40046;SDS011;31510;48.122;11.576;2022-10-16T04:12:12;2.88;;;1.10;;
40046;SDS011;31510;48.122;11.576;2022-10-16T04:14:37;1.30;;;0.63;;
40046;SDS011;31510;48.122;11.576;2022-10-16T04:17:03;1.75;;;1.05;;
40046;SDS011;31510;48.122;11.576;2022-10-16T04:19:28;1.92;;;1.27;;
40046;SDS011;31510;48.122;11.576;2022-10-16T04:21:53;8.32;;;2.05;;
40046;SDS011;31510;48.122;11.576;2022-10-16T04:24:18;4.85;;;1.73;;
40046;SDS011;31510;48.122;11.576;2022-10-16T04:26:44;4.22;;;1.25;;
40046;SDS011;31510;48.122;11.576;2022-10-16T04:29:09;1.95;;;1.15;;
40046;SDS011;31510;48.122;11.576;2022-10-16T04:31:34;1.80;;;0.90;;
40046;SDS011;31510;48.122;11.576;2022-10-16T04:34:00;1.88;;;1.13;;
40046;SDS011;31510;48.122;11.576;2022-10-16T04:36:25;2.00;;;0.68;;
40046;SDS011;31510;48.122;11.576;2022-10-16T04:38:50;2.67;;;1.67;;
40046;SDS011;31510;48.122;11.576;2022-10-16T04:41:15;2.13;;;0.93;;
40046;SDS011;31510;48.122;11.576;2022-10-16T04:43:41;1.60;;;0.77;;
40046;SDS011;31510;48.122;11.576;2022-10-16T04:46:06;2.60;;;1.45;;
40046;SDS011;31510;48.122;11.576;2022-10-16T04:48:32;3.65;;;0.85;;
40046;SDS011;31510;48.122;11.576;2022-10-16T04:50:57;2.78;;;1.15;;
40046;SDS011;31510;48.122;11.576;2022-10-16T04:53:24;5.32;;;0.98;;
40046;SDS011;31510;48.122;11.576;2022-10-16T04:55:49;2.50;;;0.90;;
40046;SDS011;31510;48.122;11.576;2022-10-16T04:58:15;2.53;;;1.27;;
40046;SDS011;31510;48.122;11.576;2022-10-16T05:00:40;1.23;;;0.80;;
40046;SDS011;31510;48.122;11.576;2022-10-16T05:03:05;1.60;;;0.98;;
40046;SDS011;31510;48.122;11.576;2022-10-16T05:05:33;3.47;;;1.20;;
40046;SDS011;31510;48.122;11.576;2022-10-16T05:07:59;2.25;;;1.02;;
40046;SDS011;31510;48.122;11.576;2022-10-16T05:10:25;2.20;;;0.90;;
40046;SDS011;31510;48.122;11.576;2022-10-16T05:12:50;1.85;;;0.98;;
40046;SDS011;31510;48.122;11.576;2022-10-16T05:15:16;4.75;;;2.20;;
40046;SDS011;31510;48.122;11.576;2022-10-16T05:17:42;2.08;;;0.90;;
40046;SDS011;31510;48.122;11.576;2022-10-16T05:20:07;4.80;;;1.20;;
40046;SDS011;31510;48.122;11.576;2022-10-16T05:22:32;1.95;;;0.85;;
40046;SDS011;31510;48.122;11.576;2022-10-16T05:24:58;5.95;;;1.13;;
40046;SDS011;31510;48.122;11.576;2022-10-16T05:27:23;3.50;;;1.10;;
40046;SDS011;31510;48.122;11.576;2022-10-16T05:29:48;4.03;;;1.00;;
40046;SDS011;31510;48.122;11.576;2022-10-16T05:32:14;2.33;;;1.00;;
40046;SDS011;31510;48.122;11.576;2022-10-16T05:34:41;4.95;;;0.93;;
40046;SDS011;31510;48.122;11.576;2022-10-16T05:37:06;4.55;;;1.40;;
40046;SDS011;31510;48.122;11.576;2022-10-16T05:39:32;1.90;;;1.10;;
40046;SDS011;31510;48.122;11.576;2022-10-16T05:41:58;2.25;;;1.33;;
40046;SDS011;31510;48.122;11.576;2022-10-16T05:44:23;2.63;;;1.35;;
40046;SDS011;31510;48.122;11.576;2022-10-16T05:46:48;4.47;;;1.20;;
40046;SDS011;31510;48.122;11.576;2022-10-16T05:49:14;3.17;;;1.30;;
40046;SDS011;31510;48.122;11.576;2022-10-16T05:51:39;1.65;;;1.15;;
40046;SDS011;31510;48.122;11.576;2022-10-16T05:54:05;8.20;;;2.50;;
40046;SDS011;31510;48.122;11.576;2022-10-16T05:56:30;4.00;;;1.67;;
40046;SDS011;31510;48.122;11.576;2022-10-16T05:58:55;2.03;;;1.50;;
40046;SDS011;31510;48.122;11.576;2022-10-16T06:01:21;2.67;;;1.58;;
40046;SDS011;31510;48.122;11.576;2022-10-16T06:03:48;3.22;;;2.13;;
40046;SDS011;31510;48.122;11.576;2022-10-16T06:06:16;3.95;;;2.28;;
40046;SDS011;31510;48.122;11.576;2022-10-16T06:08:42;5.38;;;2.83;;
40046;SDS011;31510;48.122;11.576;2022-10-16T06:11:11;7.15;;;2.45;;
40046;SDS011;31510;48.122;11.576;2022-10-16T06:13:38;4.10;;;2.10;;
40046;SDS011;31510;48.122;11.576;2022-10-16T06:16:06;3.88;;;1.70;;
40046;SDS011;31510;48.122;11.576;2022-10-16T06:18:32;2.65;;;1.60;;
40046;SDS011;31510;48.122;11.576;2022-10-16T06:20:57;3.03;;;1.70;;
40046;SDS011;31510;48.122;11.576;2022-10-16T06:23:24;7.35;;;2.35;;
40046;SDS011;31510;48.122;11.576;2022-10-16T06:25:50;4.05;;;2.45;;
40046;SDS011;31510;48.122;11.576;2022-10-16T06:28:15;6.97;;;2.80;;
40046;SDS011;31510;48.122;11.576;2022-10-16T06:30:41;4.65;;;2.40;;
40046;SDS011;31510;48.122;11.576;2022-10-16T06:33:08;5.38;;;2.38;;
40046;SDS011;31510;48.122;11.576;2022-10-16T06:35:34;14.23;;;3.33;;
40046;SDS011;31510;48.122;11.576;2022-10-16T06:37:59;4.85;;;3.50;;
40046;SDS011;31510;48.122;11.576;2022-10-16T06:40:25;6.15;;;2.40;;
40046;SDS011;31510;48.122;11.576;2022-10-16T06:42:50;5.07;;;2.65;;
40046;SDS011;31510;48.122;11.576;2022-10-16T06:45:16;4.60;;;2.50;;
40046;SDS011;31510;48.122;11.576;2022-10-16T06:47:42;4.07;;;2.80;;
40046;SDS011;31510;48.122;11.576;2022-10-16T06:50:07;5.50;;;2.03;;
40046;SDS011;31510;48.122;11.576;2022-10-16T06:52:33;4.70;;;2.00;;
40046;SDS011;31510;48.122;11.576;2022-10-16T06:54:59;4.30;;;1.90;;
40046;SDS011;31510;48.122;11.576;2022-10-16T06:57:25;2.88;;;2.20;;
40046;SDS011;31510;48.122;11.576;2022-10-16T06:59:50;3.25;;;2.03;;
40046;SDS011;31510;48.122;11.576;2022-10-16T07:02:16;7.65;;;2.78;;
40046;SDS011;31510;48.122;11.576;2022-10-16T07:04:41;3.03;;;1.90;;
40046;SDS011;31510;48.122;11.576;2022-10-16T07:07:06;6.65;;;2.42;;
40046;SDS011;31510;48.122;11.576;2022-10-16T07:09:31;4.97;;;2.90;;
40046;SDS011;31510;48.122;11.576;2022-10-16T07:11:57;4.45;;;2.60;;
40046;SDS011;31510;48.122;11.576;2022-10-16T07:14:22;6.97;;;2.70;;
40046;SDS011;31510;48.122;11.576;2022-10-16T07:16:47;4.50;;;2.63;;
40046;SDS011;31510;48.122;11.576;2022-10-16T07:19:13;5.50;;;2.22;;
40046;SDS011;31510;48.122;11.576;2022-10-16T07:21:40;5.22;;;2.78;;
40046;SDS011;31510;48.122;11.576;2022-10-16T07:24:06;5.95;;;2.63;;
40046;SDS011;31510;48.122;11.576;2022-10-16T07:26:36;4.17;;;2.23;;
40046;SDS011;31510;48.122;11.576;2022-10-16T07:29:03;5.93;;;3.15;;
40046;SDS011;31510;48.122;11.576;2022-10-16T07:31:29;8.35;;;2.97;;
40046;SDS011;31510;48.122;11.576;2022-10-16T07:33:54;5.00;;;2.60;;
40046;SDS011;31510;48.122;11.576;2022-10-16T07:36:20;3.53;;;2.05;;
40046;SDS011;31510;48.122;11.576;2022-10-16T07:38:46;5.35;;;2.90;;
40046;SDS011;31510;48.122;11.576;2022-10-16T07:41:12;4.22;;;2.35;;
40046;SDS011;31510;48.122;11.576;2022-10-16T07:43:39;3.03;;;1.80;;
40046;SDS011;31510;48.122;11.576;2022-10-16T07:46:05;3.25;;;1.98;;
40046;SDS011;31510;48.122;11.576;2022-10-16T07:48:32;4.90;;;2.38;;
40046;SDS011;31510;48.122;11.576;2022-10-16T07:50:58;3.28;;;2.25;;
40046;SDS011;31510;48.122;11.576;2022-10-16T07:53:24;3.83;;;2.35;;
40046;SDS011;31510;48.122;11.576;2022-10-16T07:55:50;4.35;;;2.15;;
40046;SDS011;31510;48.122;11.576;2022-10-16T07:58:15;5.82;;;2.17;;
40046;SDS011;31510;48.122;11.576;2022-10-16T08:00:41;3.47;;;2.53;;
40046;SDS011;31510;48.122;11.576;2022-10-16T08:03:06;4.90;;;2.05;;
40046;SDS011;31510;48.122;11.576;2022-10-16T08:05:32;4.07;;;3.25;;
40046;SDS011;31510;48.122;11.576;2022-10-16T08:07:58;5.57;;;2.75;;
40046;SDS011;31510;48.122;11.576;2022-10-16T08:10:24;8.77;;;2.75;;
40046;SDS011;31510;48.122;11.576;2022-10-16T08:12:51;3.45;;;2.15;;
40046;SDS011;31510;48.122;11.576;2022-10-16T08:15:17;4.22;;;2.17;;
40046;SDS011;31510;48.122;11.576;2022-10-16T08:17:43;3.95;;;2.50;;
40046;SDS011;31510;48.122;11.576;2022-10-16T08:20:09;5.10;;;2.30;;
40046;SDS011;31510;48.122;11.576;2022-10-16T08:22:35;3.83;;;2.05;;
40046;SDS011;31510;48.122;11.576;2022-10-16T08:25:00;3.30;;;1.67;;
40046;SDS011;31510;48.122;11.576;2022-10-16T08:27:30;3.08;;;1.90;;
40046;SDS011;31510;48.122;11.576;2022-10-16T08:32:21;4.53;;;2.00;;
40046;SDS011;31510;48.122;11.576;2022-10-16T08:34:46;3.20;;;1.80;;
40046;SDS011;31510;48.122;11.576;2022-10-16T08:37:12;3.20;;;1.77;;
40046;SDS011;31510;48.122;11.576;2022-10-16T08:39:38;1.92;;;1.30;;
40046;SDS011;31510;48.122;11.576;2022-10-16T08:42:11;4.82;;;2.17;;
40046;SDS011;31510;48.122;11.576;2022-10-16T08:50:23;2.30;;;1.40;;
40046;SDS011;31510;48.122;11.576;2022-10-16T08:52:52;2.22;;;1.60;;
40046;SDS011;31510;48.122;11.576;2022-10-16T08:58:14;2.60;;;1.35;;
40046;SDS011;31510;48.122;11.576;2022-10-16T09:00:42;2.15;;;1.25;;
40046;SDS011;31510;48.122;11.576;2022-10-16T09:06:08;3.17;;;1.52;;
40046;SDS011;31510;48.122;11.576;2022-10-16T09:19:39;3.88;;;1.92;;
40046;SDS011;31510;48.122;11.576;2022-10-16T09:22:15;4.65;;;1.35;;
40046;SDS011;31510;48.122;11.576;2022-10-16T09:24:41;3.00;;;1.48;;
40046;SDS011;31510;48.122;11.576;2022-10-16T09:27:11;2.90;;;1.60;;
40046;SDS011;31510;48.122;11.576;2022-10-16T09:29:37;3.20;;;1.50;;
40046;SDS011;31510;48.122;11.576;2022-10-16T09:32:12;2.65;;;1.30;;
40046;SDS011;31510;48.122;11.576;2022-10-16T09:34:42;3.15;;;1.52;;
40046;SDS011;31510;48.122;11.576;2022-10-16T09:37:13;3.28;;;1.65;;
40046;SDS011;31510;48.122;11.576;2022-10-16T09:39:46;2.57;;;1.37;;
40046;SDS011;31510;48.122;11.576;2022-10-16T09:42:18;3.28;;;2.28;;
40046;SDS011;31510;48.122;11.576;2022-10-16T09:44:48;3.70;;;1.60;;
40046;SDS011;31510;48.122;11.576;2022-10-16T09:47:16;3.20;;;1.88;;
40046;SDS011;31510;48.122;11.576;2022-10-16T09:50:02;3.47;;;1.73;;
40046;SDS011;31510;48.122;11.576;2022-10-16T09:52:31;3.97;;;1.60;;
40046;SDS011;31510;48.122;11.576;2022-10-16T09:54:58;2.65;;;1.27;;
40046;SDS011;31510;48.122;11.576;2022-10-16T09:57:25;2.45;;;1.75;;
40046;SDS011;31510;48.122;11.576;2022-10-16T09:59:51;2.65;;;1.80;;
40046;SDS011;31510;48.122;11.576;2022-10-16T10:02:19;2.70;;;1.60;;
40046;SDS011;31510;48.122;11.576;2022-10-16T10:04:52;2.33;;;1.60;;
40046;SDS011;31510;48.122;11.576;2022-10-16T10:07:32;2.85;;;1.63;;
40046;SDS011;31510;48.122;11.576;2022-10-16T10:10:01;3.58;;;2.00;;
40046;SDS011;31510;48.122;11.576;2022-10-16T10:12:29;4.22;;;1.67;;
40046;SDS011;31510;48.122;11.576;2022-10-16T10:14:57;6.80;;;1.90;;
40046;SDS011;31510;48.122;11.576;2022-10-16T10:17:29;4.55;;;1.92;;
40046;SDS011;31510;48.122;11.576;2022-10-16T10:22:48;2.90;;;1.92;;
40046;SDS011;31510;48.122;11.576;2022-10-16T10:27:51;2.00;;;1.55;;
40046;SDS011;31510;48.122;11.576;2022-10-16T10:33:24;2.08;;;1.20;;
40046;SDS011;31510;48.122;11.576;2022-10-16T10:36:01;2.05;;;1.30;;
40046;SDS011;31510;48.122;11.576;2022-10-16T10:41:25;3.38;;;1.33;;
40046;SDS011;31510;48.122;11.576;2022-10-16T10:54:32;5.77;;;2.20;;
40046;SDS011;31510;48.122;11.576;2022-10-16T10:57:22;2.22;;;1.45;;
40046;SDS011;31510;48.122;11.576;2022-10-16T11:05:46;2.35;;;1.30;;
40046;SDS011;31510;48.122;11.576;2022-10-16T11:08:19;2.90;;;1.50;;
40046;SDS011;31510;48.122;11.576;2022-10-16T11:10:53;3.60;;;1.25;;
40046;SDS011;31510;48.122;11.576;2022-10-16T11:13:39;1.80;;;1.10;;
40046;SDS011;31510;48.122;11.576;2022-10-16T11:19:14;2.35;;;1.30;;
40046;SDS011;31510;48.122;11.576;2022-10-16T11:22:01;7.60;;;1.10;;
40046;SDS011;31510;48.122;11.576;2022-10-16T11:27:08;1.42;;;1.08;;
40046;SDS011;31510;48.122;11.576;2022-10-16T11:29:40;3.35;;;1.00;;
40046;SDS011;31510;48.122;11.576;2022-10-16T11:32:19;2.40;;;1.10;;
40046;SDS011;31510;48.122;11.576;2022-10-16T11:34:50;2.45;;;1.40;;
40046;SDS011;31510;48.122;11.576;2022-10-16T11:37:21;2.20;;;0.90;;
40046;SDS011;31510;48.122;11.576;2022-10-16T11:39:50;0.98;;;0.55;;
40046;SDS011;31510;48.122;11.576;2022-10-16T11:42:22;1.17;;;0.85;;
40046;SDS011;31510;48.122;11.576;2022-10-16T11:47:56;1.65;;;0.60;;
40046;SDS011;31510;48.122;11.576;2022-10-16T11:53:16;2.65;;;0.68;;
40046;SDS011;31510;48.122;11.576;2022-10-16T11:55:45;1.55;;;0.32;;
40046;SDS011;31510;48.122;11.576;2022-10-16T12:01:02;3.50;;;0.90;;
40046;SDS011;31510;48.122;11.576;2022-10-16T12:03:35;0.95;;;0.70;;
40046;SDS011;31510;48.122;11.576;2022-10-16T12:06:13;1.88;;;1.20;;
40046;SDS011;31510;48.122;11.576;2022-10-16T12:08:40;1.40;;;0.60;;
40046;SDS011;31510;48.122;11.576;2022-10-16T12:11:19;1.20;;;0.75;;
40046;SDS011;31510;48.122;11.576;2022-10-16T12:13:45;0.90;;;0.60;;
40046;SDS011;31510;48.122;11.576;2022-10-16T12:18:42;1.40;;;0.77;;
40046;SDS011;31510;48.122;11.576;2022-10-16T12:21:10;3.47;;;0.70;;
40046;SDS011;31510;48.122;11.576;2022-10-16T12:26:14;1.92;;;0.88;;
40046;SDS011;31510;48.122;11.576;2022-10-16T12:28:48;0.80;;;0.40;;
40046;SDS011;31510;48.122;11.576;2022-10-16T12:31:16;1.40;;;0.57;;
40046;SDS011;31510;48.122;11.576;2022-10-16T12:33:43;1.02;;;0.60;;
40046;SDS011;31510;48.122;11.576;2022-10-16T12:36:29;4.13;;;0.70;;
40046;SDS011;31510;48.122;11.576;2022-10-16T12:38:57;1.00;;;0.50;;
40046;SDS011;31510;48.122;11.576;2022-10-16T12:41:32;1.90;;;0.50;;
40046;SDS011;31510;48.122;11.576;2022-10-16T12:44:00;1.17;;;0.80;;
40046;SDS011;31510;48.122;11.576;2022-10-16T12:49:04;1.70;;;0.70;;
40046;SDS011;31510;48.122;11.576;2022-10-16T12:51:52;1.10;;;0.60;;
40046;SDS011;31510;48.122;11.576;2022-10-16T12:54:30;0.68;;;0.38;;
40046;SDS011;31510;48.122;11.576;2022-10-16T13:15:35;1.33;;;0.90;;
40046;SDS011;31510;48.122;11.576;2022-10-16T13:18:27;1.63;;;0.70;;
40046;SDS011;31510;48.122;11.576;2022-10-16T13:23:56;1.00;;;0.68;;
40046;SDS011;31510;48.122;11.576;2022-10-16T13:29:05;0.82;;;0.60;;
40046;SDS011;31510;48.122;11.576;2022-10-16T13:31:31;4.03;;;0.63;;
40046;SDS011;31510;48.122;11.576;2022-10-16T13:33:58;1.25;;;1.00;;
40046;SDS011;31510;48.122;11.576;2022-10-16T13:36:26;0.57;;;0.38;;
40046;SDS011;31510;48.122;11.576;2022-10-16T13:39:15;1.85;;;0.82;;
40046;SDS011;31510;48.122;11.576;2022-10-16T13:41:46;1.42;;;0.80;;
40046;SDS011;31510;48.122;11.576;2022-10-16T13:44:44;4.43;;;0.85;;
40046;SDS011;31510;48.122;11.576;2022-10-16T13:47:45;1.13;;;0.73;;
40046;SDS011;31510;48.122;11.576;2022-10-16T13:50:11;1.20;;;0.82;;
40046;SDS011;31510;48.122;11.576;2022-10-16T13:52:38;2.58;;;0.77;;
40046;SDS011;31510;48.122;11.576;2022-10-16T13:55:11;1.20;;;0.82;;
40046;SDS011;31510;48.122;11.576;2022-10-16T13:57:37;0.90;;;0.52;;
40046;SDS011;31510;48.122;11.576;2022-10-16T14:00:02;1.42;;;0.70;;
40046;SDS011;31510;48.122;11.576;2022-10-16T14:02:33;1.00;;;0.70;;
40046;SDS011;31510;48.122;11.576;2022-10-16T14:05:02;0.85;;;0.75;;
40046;SDS011;31510;48.122;11.576;2022-10-16T14:07:30;1.30;;;0.77;;
40046;SDS011;31510;48.122;11.576;2022-10-16T14:10:05;1.38;;;0.45;;
40046;SDS011;31510;48.122;11.576;2022-10-16T14:12:32;12.02;;;1.52;;
40046;SDS011;31510;48.122;11.576;2022-10-16T14:14:59;1.02;;;0.70;;
40046;SDS011;31510;48.122;11.576;2022-10-16T14:17:32;3.60;;;0.90;;
40046;SDS011;31510;48.122;11.576;2022-10-16T14:20:00;2.10;;;1.02;;
40046;SDS011;31510;48.122;11.576;2022-10-16T14:22:33;0.88;;;0.60;;
40046;SDS011;31510;48.122;11.576;2022-10-16T14:24:58;1.13;;;0.73;;
40046;SDS011;31510;48.122;11.576;2022-10-16T14:30:33;1.42;;;0.95;;
40046;SDS011;31510;48.122;11.576;2022-10-16T14:35:41;8.37;;;1.27;;
40046;SDS011;31510;48.122;11.576;2022-10-16T14:38:16;0.82;;;0.70;;
40046;SDS011;31510;48.122;11.576;2022-10-16T14:40:46;1.70;;;0.85;;
40046;SDS011;31510;48.122;11.576;2022-10-16T14:43:21;2.50;;;0.75;;
40046;SDS011;31510;48.122;11.576;2022-10-16T14:45:55;1.20;;;0.85;;
40046;SDS011;31510;48.122;11.576;2022-10-16T14:48:22;1.75;;;0.70;;
40046;SDS011;31510;48.122;11.576;2022-10-16T14:50:48;0.60;;;0.52;;
40046;SDS011;31510;48.122;11.576;2022-10-16T14:53:20;2.30;;;0.63;;
40046;SDS011;31510;48.122;11.576;2022-10-16T14:55:46;0.80;;;0.60;;
40046;SDS011;31510;48.122;11.576;2022-10-16T14:58:15;2.42;;;0.80;;
40046;SDS011;31510;48.122;11.576;2022-10-16T15:00:42;3.22;;;2.15;;
40046;SDS011;31510;48.122;11.576;2022-10-16T15:03:08;4.18;;;1.90;;
40046;SDS011;31510;48.122;11.576;2022-10-16T15:05:33;2.75;;;1.55;;
40046;SDS011;31510;48.122;11.576;2022-10-16T15:07:58;2.17;;;1.17;;
40046;SDS011;31510;48.122;11.576;2022-10-16T15:10:24;1.77;;;0.85;;
40046;SDS011;31510;48.122;11.576;2022-10-16T15:12:51;3.60;;;1.00;;
40046;SDS011;31510;48.122;11.576;2022-10-16T15:17:45;1.55;;;1.00;;
40046;SDS011;31510;48.122;11.576;2022-10-16T15:20:10;1.05;;;0.80;;
40046;SDS011;31510;48.122;11.576;2022-10-16T15:22:35;1.25;;;0.73;;
40046;SDS011;31510;48.122;11.576;2022-10-16T15:25:01;4.53;;;1.23;;
40046;SDS011;31510;48.122;11.576;2022-10-16T15:27:26;1.60;;;1.10;;
40046;SDS011;31510;48.122;11.576;2022-10-16T15:29:51;2.67;;;1.33;;
40046;SDS011;31510;48.122;11.576;2022-10-16T15:32:16;11.03;;;1.87;;
40046;SDS011;31510;48.122;11.576;2022-10-16T15:34:42;7.23;;;2.27;;
40046;SDS011;31510;48.122;11.576;2022-10-16T15:37:08;3.10;;;1.95;;
40046;SDS011;31510;48.122;11.576;2022-10-16T15:39:33;2.25;;;1.50;;
40046;SDS011;31510;48.122;11.576;2022-10-16T15:41:58;2.40;;;1.00;;
40046;SDS011;31510;48.122;11.576;2022-10-16T15:44:24;1.45;;;0.80;;
40046;SDS011;31510;48.122;11.576;2022-10-16T15:46:54;1.58;;;1.08;;
40046;SDS011;31510;48.122;11.576;2022-10-16T15:49:19;2.80;;;1.60;;
40046;SDS011;31510;48.122;11.576;2022-10-16T15:51:45;2.85;;;1.30;;
40046;SDS011;31510;48.122;11.576;2022-10-16T15:54:11;1.67;;;1.35;;
40046;SDS011;31510;48.122;11.576;2022-10-16T15:56:44;1.85;;;1.42;;
40046;SDS011;31510;48.122;11.576;2022-10-16T15:59:11;2.50;;;1.45;;
40046;SDS011;31510;48.122;11.576;2022-10-16T16:01:37;4.00;;;0.82;;
40046;SDS011;31510;48.122;11.576;2022-10-16T16:04:02;1.92;;;1.20;;
40046;SDS011;31510;48.122;11.576;2022-10-16T16:06:29;1.88;;;1.23;;
40046;SDS011;31510;48.122;11.576;2022-10-16T16:08:54;2.85;;;0.90;;
40046;SDS011;31510;48.122;11.576;2022-10-16T16:11:19;4.47;;;1.93;;
40046;SDS011;31510;48.122;11.576;2022-10-16T16:13:45;1.67;;;0.88;;
40046;SDS011;31510;48.122;11.576;2022-10-16T16:16:11;2.67;;;1.50;;
40046;SDS011;31510;48.122;11.576;2022-10-16T16:18:38;2.58;;;1.50;;
40046;SDS011;31510;48.122;11.576;2022-10-16T16:21:07;3.47;;;1.70;;
40046;SDS011;31510;48.122;11.576;2022-10-16T16:23:43;5.30;;;1.33;;
40046;SDS011;31510;48.122;11.576;2022-10-16T16:26:13;2.25;;;1.30;;
40046;SDS011;31510;48.122;11.576;2022-10-16T16:28:51;3.22;;;1.20;;
40046;SDS011;31510;48.122;11.576;2022-10-16T16:31:18;2.58;;;1.17;;
40046;SDS011;31510;48.122;11.576;2022-10-16T16:33:44;1.95;;;1.40;;
40046;SDS011;31510;48.122;11.576;2022-10-16T16:36:09;3.97;;;1.23;;
40046;SDS011;31510;48.122;11.576;2022-10-16T16:38:35;2.35;;;1.15;;
40046;SDS011;31510;48.122;11.576;2022-10-16T16:41:13;2.67;;;1.17;;
40046;SDS011;31510;48.122;11.576;2022-10-16T16:43:40;2.83;;;1.30;;
40046;SDS011;31510;48.122;11.576;2022-10-16T16:46:05;3.13;;;1.65;;
40046;SDS011;31510;48.122;11.576;2022-10-16T16:48:31;2.30;;;1.45;;